createdAt,value
2023-03-01T00:01:21.491Z,53.40
2023-03-01T00:03:48.437Z,54.60
2023-03-01T00:06:15.522Z,46.63
2023-03-01T00:08:42.085Z,44.90
2023-03-01T00:11:18.956Z,39.27
2023-03-01T00:13:48.797Z,38.13
2023-03-01T00:16:40.867Z,43.40
2023-03-01T00:19:12.578Z,43.43
2023-03-01T00:21:40.216Z,46.10
2023-03-01T00:24:07.282Z,37.77
2023-03-01T00:26:33.972Z,45.00
2023-03-01T00:29:01.270Z,39.50
2023-03-01T00:31:32.367Z,36.73
2023-03-01T00:34:03.006Z,41.30
2023-03-01T00:36:36.487Z,43.83
2023-03-01T00:39:06.332Z,38.87
2023-03-01T00:41:34.773Z,46.77
2023-03-01T00:44:01.259Z,41.83
2023-03-01T00:46:28.223Z,54.20
2023-03-01T00:48:54.982Z,40.63
2023-03-01T00:51:27.787Z,42.40
2023-03-01T00:53:58.315Z,41.27
2023-03-01T00:56:25.402Z,42.67
2023-03-01T00:58:51.981Z,47.40
2023-03-01T01:01:24.114Z,51.07
2023-03-01T01:03:57.816Z,40.53
2023-03-01T01:06:32.229Z,40.90
2023-03-01T01:08:59.360Z,45.70
2023-03-01T01:11:29.271Z,39.90
2023-03-01T01:13:57.148Z,51.83
2023-03-01T01:16:26.686Z,49.40
2023-03-01T01:18:53.742Z,41.50
2023-03-01T01:21:24.065Z,48.27
2023-03-01T01:23:52.370Z,48.73
2023-03-01T01:26:26.677Z,44.30
2023-03-01T01:28:54.233Z,42.53
2023-03-01T01:31:23.771Z,41.83
2023-03-01T01:33:51.892Z,42.43
2023-03-01T01:36:18.366Z,42.07
2023-03-01T01:38:45.615Z,41.63
2023-03-01T01:41:14.665Z,41.13
2023-03-01T01:43:48.383Z,45.50
2023-03-01T01:46:34.690Z,45.53
2023-03-01T01:49:16.230Z,47.53
2023-03-01T01:51:48.395Z,44.83
2023-03-01T01:54:28.535Z,43.83
2023-03-01T01:57:06.910Z,47.73
2023-03-01T01:59:34.686Z,42.07
2023-03-01T02:02:04.274Z,51.43
2023-03-01T02:04:33.156Z,48.00
2023-03-01T02:07:17.573Z,40.47
2023-03-01T02:09:50.544Z,45.93
2023-03-01T02:12:21.827Z,49.30
2023-03-01T02:14:48.304Z,40.17
2023-03-01T02:17:17.856Z,47.00
2023-03-01T02:21:47.675Z,43.90
2023-03-01T02:28:41.056Z,40.97
2023-03-01T02:31:28.793Z,51.17
2023-03-01T02:33:57.401Z,48.27
2023-03-01T02:36:34.659Z,42.13
2023-03-01T02:39:06.042Z,43.77
2023-03-01T02:41:38.132Z,55.40
2023-03-01T02:44:06.186Z,42.17
2023-03-01T02:46:33.213Z,47.23
2023-03-01T02:49:00.581Z,38.77
2023-03-01T02:52:24.219Z,41.23
2023-03-01T02:55:10.789Z,41.67
2023-03-01T02:57:42.076Z,43.03
2023-03-01T03:00:20.919Z,40.47
2023-03-01T03:02:50.294Z,42.53
2023-03-01T03:05:25.160Z,40.80
2023-03-01T03:07:52.078Z,47.40
2023-03-01T03:10:26.987Z,49.57
2023-03-01T03:12:57.500Z,42.23
2023-03-01T03:15:25.411Z,47.27
2023-03-01T03:17:53.511Z,42.77
2023-03-01T03:20:25.783Z,40.90
2023-03-01T03:22:55.025Z,48.87
2023-03-01T03:25:23.378Z,42.73
2023-03-01T03:27:56.766Z,45.00
2023-03-01T03:30:27.765Z,43.10
2023-03-01T03:32:55.243Z,44.30
2023-03-01T03:35:32.769Z,43.07
2023-03-01T03:38:06.437Z,41.83
2023-03-01T03:40:41.336Z,33.63
2023-03-01T03:43:12.351Z,43.10
2023-03-01T03:45:38.925Z,43.80
2023-03-01T03:48:09.491Z,40.07
2023-03-01T03:50:37.634Z,44.97
2023-03-01T03:53:11.890Z,44.27
2023-03-01T03:55:39.376Z,47.33
2023-03-01T03:58:09.816Z,44.80
2023-03-01T04:00:43.932Z,46.03
2023-03-01T04:03:13.329Z,43.37
2023-03-01T04:05:41.336Z,45.70
2023-03-01T04:08:09.033Z,50.40
2023-03-01T04:10:42.344Z,37.77
2023-03-01T04:13:13.961Z,40.10
2023-03-01T04:15:41.154Z,46.00
2023-03-01T04:18:15.246Z,40.30
2023-03-01T04:20:45.225Z,39.40
2023-03-01T04:23:20.781Z,38.97
2023-03-01T04:25:59.531Z,40.60
2023-03-01T04:28:36.372Z,51.57
2023-03-01T04:31:16.699Z,37.97
2023-03-01T04:33:55.534Z,43.20
2023-03-01T04:36:26.798Z,39.17
2023-03-01T04:38:54.679Z,44.83
2023-03-01T04:41:24.604Z,38.30
2023-03-01T04:43:51.356Z,46.07
2023-03-01T04:46:21.005Z,39.63
2023-03-01T04:48:47.872Z,44.20
2023-03-01T04:51:14.893Z,36.67
2023-03-01T04:53:42.473Z,43.03
2023-03-01T04:56:09.366Z,43.93
2023-03-01T04:58:35.912Z,37.03
2023-03-01T05:01:15.271Z,41.43
2023-03-01T05:03:48.389Z,35.53
2023-03-01T05:06:15.660Z,43.87
2023-03-01T05:08:44.058Z,36.43
2023-03-01T05:11:11.530Z,42.23
2023-03-01T05:13:39.995Z,42.17
2023-03-01T05:16:11.308Z,40.70
2023-03-01T05:18:38.746Z,40.27
2023-03-01T05:21:13.289Z,39.50
2023-03-01T05:23:40.131Z,45.20
2023-03-01T05:26:16.080Z,39.13
2023-03-01T05:28:49.418Z,46.57
2023-03-01T05:31:16.076Z,42.80
2023-03-01T05:33:43.659Z,38.50
2023-03-01T05:36:10.824Z,44.03
2023-03-01T05:38:37.429Z,42.73
2023-03-01T05:41:04.305Z,42.13
2023-03-01T05:43:34.192Z,51.37
2023-03-01T05:46:00.794Z,43.37
2023-03-01T05:48:27.313Z,51.40
2023-03-01T05:50:53.818Z,57.70
2023-03-01T05:53:21.412Z,39.50
2023-03-01T05:55:49.974Z,38.13
2023-03-01T05:58:19.794Z,37.97
2023-03-01T06:00:48.913Z,41.20
2023-03-01T06:03:17.833Z,46.70
2023-03-01T06:05:44.870Z,38.27
2023-03-01T06:08:13.462Z,42.80
2023-03-01T06:10:41.084Z,39.93
2023-03-01T06:13:07.576Z,38.20
2023-03-01T06:15:34.098Z,39.60
2023-03-01T06:18:03.092Z,38.60
2023-03-01T06:20:30.032Z,38.23
2023-03-01T06:22:56.903Z,38.13
2023-03-01T06:25:26.488Z,41.10
2023-03-01T06:27:52.980Z,43.43
2023-03-01T06:30:22.093Z,43.60
2023-03-01T06:32:49.250Z,44.33
2023-03-01T06:35:18.340Z,42.13
2023-03-01T06:37:46.736Z,46.27
2023-03-01T06:40:14.556Z,42.03
2023-03-01T06:42:49.253Z,43.73
2023-03-01T06:45:16.332Z,52.53
2023-03-01T06:47:42.894Z,70.37
2023-03-01T06:50:10.916Z,47.80
2023-03-01T06:52:37.764Z,44.10
2023-03-01T06:55:05.439Z,39.00
2023-03-01T06:57:32.134Z,50.57
2023-03-01T06:59:58.605Z,43.87
2023-03-01T07:02:25.275Z,42.53
2023-03-01T07:04:52.081Z,41.50
2023-03-01T07:07:18.829Z,42.20
2023-03-01T07:09:46.875Z,47.03
2023-03-01T07:12:13.517Z,45.30
2023-03-01T07:14:40.035Z,47.77
2023-03-01T07:17:06.777Z,42.53
2023-03-01T07:19:33.292Z,42.77
2023-03-01T07:21:59.795Z,46.43
2023-03-01T07:24:26.385Z,45.07
2023-03-01T07:26:53.789Z,52.07
2023-03-01T07:29:20.264Z,44.57
2023-03-01T07:31:46.764Z,45.43
2023-03-01T07:34:13.302Z,43.60
2023-03-01T07:36:42.652Z,49.67
2023-03-01T07:39:10.964Z,63.57
2023-03-01T07:41:37.734Z,59.27
2023-03-01T07:44:04.603Z,63.83
2023-03-01T07:46:31.422Z,53.50
2023-03-01T07:48:58.540Z,73.70
2023-03-01T07:51:25.021Z,60.43
2023-03-01T07:53:51.510Z,48.57
2023-03-01T07:56:18.953Z,56.87
2023-03-01T07:58:46.003Z,64.50
2023-03-01T08:01:17.766Z,62.43
2023-03-01T08:03:44.917Z,65.23
2023-03-01T08:06:14.150Z,62.37
2023-03-01T08:08:41.337Z,52.47
2023-03-01T08:11:11.909Z,60.93
2023-03-01T08:13:38.480Z,55.67
2023-03-01T08:16:12.547Z,60.97
2023-03-01T08:18:39.315Z,52.67
2023-03-01T08:21:16.279Z,48.90
2023-03-01T08:23:43.807Z,50.90
2023-03-01T08:26:20.534Z,52.47
2023-03-01T08:28:49.905Z,48.90
2023-03-01T08:31:30.083Z,42.63
2023-03-01T08:34:00.834Z,37.53
2023-03-01T08:36:35.093Z,44.10
2023-03-01T08:39:01.873Z,33.07
2023-03-01T08:41:29.057Z,30.47
2023-03-01T08:43:59.001Z,27.83
2023-03-01T08:46:28.646Z,34.77
2023-03-01T08:48:55.442Z,29.33
2023-03-01T08:51:22.842Z,29.47
2023-03-01T08:53:49.800Z,36.67
2023-03-01T08:56:18.584Z,34.20
2023-03-01T08:58:47.824Z,30.80
2023-03-01T09:01:18.044Z,30.43
2023-03-01T09:03:45.329Z,28.87
2023-03-01T09:06:14.143Z,30.43
2023-03-01T09:08:45.183Z,33.83
2023-03-01T09:11:16.984Z,31.13
2023-03-01T09:13:45.043Z,32.17
2023-03-01T09:16:14.007Z,34.57
2023-03-01T09:18:40.921Z,28.60
2023-03-01T09:21:16.589Z,37.33
2023-03-01T09:23:46.398Z,38.67
2023-03-01T09:26:22.045Z,30.90
2023-03-01T09:28:51.257Z,30.17
2023-03-01T09:31:20.147Z,30.93
2023-03-01T09:33:49.597Z,28.30
2023-03-01T09:36:21.189Z,33.33
2023-03-01T09:38:48.917Z,32.43
2023-03-01T09:42:03.550Z,28.50
2023-03-01T09:45:35.234Z,26.77
2023-03-01T09:48:04.400Z,28.07
2023-03-01T09:50:43.728Z,28.87
2023-03-01T09:53:18.094Z,29.17
2023-03-01T10:00:16.334Z,28.53
2023-03-01T10:03:16.405Z,31.00
2023-03-01T10:06:34.869Z,32.87
2023-03-01T10:09:12.789Z,25.53
2023-03-01T10:11:47.929Z,30.67
2023-03-01T10:14:38.369Z,33.17
2023-03-01T10:17:36.732Z,39.83
2023-03-01T10:20:25.511Z,33.30
2023-03-01T10:22:55.385Z,37.50
2023-03-01T10:27:08.164Z,38.90
2023-03-01T10:30:16.753Z,32.83
2023-03-01T10:32:44.880Z,29.90
2023-03-01T10:35:44.539Z,36.50
2023-03-01T10:38:14.267Z,30.37
2023-03-01T10:40:57.376Z,31.90
2023-03-01T10:44:06.293Z,48.23
2023-03-01T10:46:36.501Z,33.27
2023-03-01T10:49:18.515Z,41.73
2023-03-01T10:51:49.600Z,41.50
2023-03-01T10:54:37.879Z,31.00
2023-03-01T10:57:05.985Z,43.10
2023-03-01T10:59:36.935Z,38.80
2023-03-01T11:04:22.121Z,37.50
2023-03-01T11:07:01.218Z,35.07
2023-03-01T11:09:39.820Z,32.63
2023-03-01T11:12:15.878Z,36.77
2023-03-01T11:14:52.859Z,32.60
2023-03-01T11:17:29.331Z,31.97
2023-03-01T11:20:28.323Z,30.93
2023-03-01T11:23:16.107Z,33.13
2023-03-01T11:25:51.982Z,31.17
2023-03-01T11:28:21.918Z,40.10
2023-03-01T11:31:24.352Z,34.23
2023-03-01T11:35:30.952Z,32.77
2023-03-01T11:38:27.636Z,34.93
2023-03-01T11:41:26.387Z,31.90
2023-03-01T11:44:21.726Z,37.80
2023-03-01T11:50:03.522Z,34.07
2023-03-01T11:55:31.000Z,36.40
2023-03-01T12:04:30.736Z,40.53
2023-03-01T12:10:22.516Z,51.20
2023-03-01T12:17:35.305Z,38.13
2023-03-01T12:21:41.293Z,50.53
2023-03-01T12:24:54.925Z,31.23
2023-03-01T12:30:52.263Z,32.50
2023-03-01T12:35:09.194Z,43.17
2023-03-01T12:39:51.580Z,33.30
2023-03-01T12:44:38.993Z,33.10
2023-03-01T12:47:31.308Z,29.63
2023-03-01T12:50:19.163Z,31.60
2023-03-01T12:52:58.093Z,36.67
2023-03-01T12:56:52.347Z,30.13
2023-03-01T12:59:58.736Z,37.97
2023-03-01T13:02:39.415Z,34.63
2023-03-01T13:05:50.138Z,31.10
2023-03-01T13:08:57.626Z,35.23
2023-03-01T13:11:24.693Z,37.13
2023-03-01T13:13:51.826Z,39.17
2023-03-01T13:18:42.965Z,38.77
2023-03-01T13:21:09.776Z,47.27
2023-03-01T13:23:39.519Z,32.83
2023-03-01T13:26:13.949Z,32.60
2023-03-01T13:28:56.983Z,34.27
2023-03-01T13:31:58.869Z,34.20
2023-03-01T13:34:44.783Z,42.97
2023-03-01T13:37:30.814Z,35.63
2023-03-01T13:40:04.998Z,30.33
2023-03-01T13:42:50.032Z,39.13
2023-03-01T13:45:43.852Z,32.03
2023-03-01T13:48:30.330Z,32.80
2023-03-01T13:51:05.631Z,31.30
2023-03-01T13:53:39.862Z,31.97
2023-03-01T13:56:16.707Z,40.30
2023-03-01T13:59:13.456Z,27.17
2023-03-01T14:01:42.488Z,26.57
2023-03-01T14:04:32.502Z,30.53
2023-03-01T14:07:24.591Z,28.50
2023-03-01T14:10:04.726Z,30.57
2023-03-01T14:14:09.948Z,30.70
2023-03-01T14:19:05.837Z,30.57
2023-03-01T14:21:32.373Z,31.63
2023-03-01T14:23:59.631Z,31.30
2023-03-01T14:26:26.384Z,33.00
2023-03-01T14:28:53.133Z,29.30
2023-03-01T14:31:52.098Z,28.33
2023-03-01T14:34:23.489Z,29.53
2023-03-01T14:36:50.035Z,27.93
2023-03-01T14:39:26.648Z,29.40
2023-03-01T14:41:53.390Z,29.00
2023-03-01T14:44:24.952Z,32.57
2023-03-01T14:46:58.034Z,31.53
2023-03-01T14:49:31.010Z,25.37
2023-03-01T14:52:08.064Z,25.63
2023-03-01T14:54:46.793Z,35.73
2023-03-01T14:57:19.994Z,27.23
2023-03-01T14:59:48.002Z,28.90
2023-03-01T15:02:19.654Z,35.80
2023-03-01T15:04:53.072Z,24.97
2023-03-01T15:07:20.297Z,25.30
2023-03-01T15:09:47.247Z,23.33
2023-03-01T15:12:37.180Z,22.33
2023-03-01T15:15:38.698Z,34.90
2023-03-01T15:18:19.719Z,22.30
2023-03-01T15:20:48.703Z,23.27
2023-03-01T15:23:28.704Z,20.13
2023-03-01T15:25:56.826Z,30.30
2023-03-01T15:28:37.941Z,21.90
2023-03-01T15:31:25.013Z,20.97
2023-03-01T15:33:52.408Z,19.53
2023-03-01T15:36:55.549Z,19.73
2023-03-01T15:39:43.284Z,27.67
2023-03-01T15:42:37.858Z,18.00
2023-03-01T15:46:56.321Z,19.43
2023-03-01T15:49:57.123Z,18.57
2023-03-01T15:52:30.021Z,23.57
2023-03-01T15:55:02.452Z,21.10
2023-03-01T15:57:29.952Z,26.03
2023-03-01T15:59:56.419Z,21.10
2023-03-01T16:02:24.717Z,29.70
2023-03-01T16:04:51.830Z,25.03
2023-03-01T16:07:18.308Z,25.17
2023-03-01T16:09:44.796Z,24.53
2023-03-01T16:12:16.823Z,26.53
2023-03-01T16:14:43.376Z,27.63
2023-03-01T16:17:10.405Z,33.37
2023-03-01T16:19:38.465Z,25.37
2023-03-01T16:22:05.519Z,24.13
2023-03-01T16:24:32.025Z,17.17
2023-03-01T16:26:58.516Z,21.10
2023-03-01T16:29:25.010Z,20.37
2023-03-01T16:31:51.601Z,27.00
2023-03-01T16:34:18.261Z,19.70
2023-03-01T16:36:44.724Z,26.57
2023-03-01T16:39:11.218Z,20.90
2023-03-01T16:41:37.691Z,24.80
2023-03-01T16:44:04.333Z,23.10
2023-03-01T16:46:30.894Z,27.87
2023-03-01T16:48:57.672Z,25.37
2023-03-01T16:51:24.878Z,23.87
2023-03-01T16:53:51.938Z,24.47
2023-03-01T16:56:19.642Z,21.87
2023-03-01T16:58:46.233Z,25.27
2023-03-01T17:01:20.111Z,21.57
2023-03-01T17:03:49.541Z,25.00
2023-03-01T17:06:20.668Z,21.60
2023-03-01T17:08:47.365Z,22.40
2023-03-01T17:11:18.145Z,26.17
2023-03-01T17:13:45.483Z,23.47
2023-03-01T17:16:16.775Z,22.73
2023-03-01T17:18:43.755Z,20.77
2023-03-01T17:21:11.479Z,25.83
2023-03-01T17:23:43.552Z,23.53
2023-03-01T17:26:10.290Z,25.03
2023-03-01T17:28:38.007Z,24.73
2023-03-01T17:31:06.939Z,24.50
2023-03-01T17:33:33.560Z,25.13
2023-03-01T17:36:00.249Z,24.47
2023-03-01T17:38:27.609Z,25.83
2023-03-01T17:40:54.109Z,27.00
2023-03-01T17:43:20.607Z,23.07
2023-03-01T17:45:48.066Z,23.83
2023-03-01T17:48:16.146Z,25.17
2023-03-01T17:50:43.070Z,22.03
2023-03-01T17:53:10.953Z,22.90
2023-03-01T17:55:40.108Z,24.73
2023-03-01T17:58:08.068Z,26.10
2023-03-01T18:00:36.088Z,26.87
2023-03-01T18:03:03.204Z,30.47
2023-03-01T18:05:34.106Z,23.50
2023-03-01T18:08:00.633Z,25.33
2023-03-01T18:10:27.203Z,27.87
2023-03-01T18:12:53.748Z,27.97
2023-03-01T18:15:21.506Z,36.93
2023-03-01T18:17:48.309Z,30.10
2023-03-01T18:20:15.357Z,39.83
2023-03-01T18:22:41.925Z,32.10
2023-03-01T18:25:09.067Z,32.37
2023-03-01T18:27:36.291Z,27.53
2023-03-01T18:30:05.875Z,33.20
2023-03-01T18:32:32.400Z,37.87
2023-03-01T18:34:59.009Z,36.40
2023-03-01T18:37:25.624Z,48.97
2023-03-01T18:39:53.176Z,46.93
2023-03-01T18:42:20.286Z,37.30
2023-03-01T18:44:47.785Z,27.87
2023-03-01T18:47:17.180Z,31.73
2023-03-01T18:49:43.961Z,26.73
2023-03-01T18:52:10.862Z,29.73
2023-03-01T18:54:37.410Z,37.03
2023-03-01T18:57:04.025Z,38.60
2023-03-01T18:59:30.516Z,37.57
2023-03-01T19:01:57.049Z,34.87
2023-03-01T19:04:23.549Z,32.93
2023-03-01T19:06:50.256Z,37.83
2023-03-01T19:09:18.027Z,41.13
2023-03-01T19:11:44.491Z,36.77
2023-03-01T19:14:11.017Z,36.83
2023-03-01T19:16:37.756Z,42.30
2023-03-01T19:19:07.652Z,40.43
2023-03-01T19:21:34.628Z,44.33
2023-03-01T19:24:01.714Z,40.37
2023-03-01T19:26:28.404Z,35.53
2023-03-01T19:28:56.118Z,37.80
2023-03-01T19:31:26.285Z,36.93
2023-03-01T19:33:59.441Z,36.40
2023-03-01T19:36:32.652Z,39.97
2023-03-01T19:39:03.142Z,45.43
2023-03-01T19:41:30.189Z,38.50
2023-03-01T19:43:57.464Z,43.97
2023-03-01T19:46:24.878Z,43.87
2023-03-01T19:48:54.393Z,44.37
2023-03-01T19:51:21.313Z,37.57
2023-03-01T19:53:47.869Z,38.33
2023-03-01T19:56:14.398Z,44.63
2023-03-01T19:58:40.911Z,40.80
2023-03-01T20:01:20.077Z,36.13
2023-03-01T20:03:47.860Z,38.07
2023-03-01T20:06:19.460Z,48.77
2023-03-01T20:08:46.028Z,42.50
2023-03-01T20:11:15.941Z,40.83
2023-03-01T20:13:42.783Z,37.23
2023-03-01T20:16:09.681Z,38.00
2023-03-01T20:18:36.671Z,44.90
2023-03-01T20:21:07.167Z,45.13
2023-03-01T20:23:35.912Z,44.43
2023-03-01T20:26:14.379Z,45.93
2023-03-01T20:28:42.450Z,41.70
2023-03-01T20:31:12.901Z,51.90
2023-03-01T20:33:39.730Z,39.83
2023-03-01T20:36:08.024Z,42.70
2023-03-01T20:38:35.677Z,38.33
2023-03-01T20:41:10.210Z,38.97
2023-03-01T20:43:38.290Z,50.90
2023-03-01T20:46:14.249Z,50.50
2023-03-01T20:48:42.239Z,56.63
2023-03-01T20:51:10.855Z,51.43
2023-03-01T20:53:37.342Z,47.33
2023-03-01T20:56:07.867Z,46.73
2023-03-01T20:58:35.503Z,50.23
2023-03-01T21:01:03.822Z,48.50
2023-03-01T21:03:30.994Z,53.90
2023-03-01T21:06:00.033Z,54.07
2023-03-01T21:08:26.740Z,48.13
2023-03-01T21:10:55.016Z,51.27
2023-03-01T21:13:23.232Z,47.17
2023-03-01T21:16:03.729Z,50.80
2023-03-01T21:18:31.969Z,53.03
2023-03-01T21:21:08.022Z,57.67
2023-03-01T21:23:37.564Z,62.50
2023-03-01T21:26:11.221Z,59.40
2023-03-01T21:28:38.772Z,50.80
2023-03-01T21:31:26.749Z,51.23
2023-03-01T21:33:56.635Z,52.27
2023-03-01T21:36:26.249Z,55.67
2023-03-01T21:38:53.658Z,43.73
2023-03-01T21:41:25.120Z,59.20
2023-03-01T21:43:56.546Z,48.50
2023-03-01T21:46:30.363Z,59.43
2023-03-01T21:48:58.078Z,56.37
2023-03-01T21:51:26.964Z,60.83
2023-03-01T21:53:55.556Z,54.60
2023-03-01T21:56:29.240Z,45.03
2023-03-01T21:58:57.429Z,43.30
2023-03-01T22:01:27.795Z,45.57
2023-03-01T22:03:56.865Z,49.07
2023-03-01T22:06:34.774Z,45.03
2023-03-01T22:09:13.484Z,45.30
2023-03-01T22:11:44.877Z,50.43
2023-03-01T22:14:13.779Z,45.63
2023-03-01T22:16:44.438Z,46.23
2023-03-01T22:19:14.777Z,51.17
2023-03-01T22:21:45.011Z,41.13
2023-03-01T22:24:12.876Z,43.63
2023-03-01T22:26:42.849Z,43.57
2023-03-01T22:29:19.997Z,42.17
2023-03-01T22:31:46.796Z,47.40
2023-03-01T22:34:14.214Z,49.03
2023-03-01T22:36:40.757Z,37.70
2023-03-01T22:39:08.084Z,41.30
2023-03-01T22:41:43.237Z,43.73
2023-03-01T22:44:15.390Z,39.07
2023-03-01T22:46:42.851Z,39.87
2023-03-01T22:49:10.444Z,35.20
2023-03-01T22:51:41.697Z,30.87
2023-03-01T22:54:11.149Z,30.27
2023-03-01T22:56:39.293Z,35.47
2023-03-01T22:59:09.417Z,39.37
2023-03-01T23:01:38.273Z,36.93
2023-03-01T23:04:04.776Z,31.77
2023-03-01T23:06:31.901Z,35.03
2023-03-01T23:09:03.627Z,36.20
2023-03-01T23:11:30.132Z,38.73
2023-03-01T23:13:59.278Z,44.73
2023-03-01T23:16:26.649Z,57.67
2023-03-01T23:18:57.459Z,71.17
2023-03-01T23:21:24.081Z,56.43
2023-03-01T23:23:51.276Z,42.53
2023-03-01T23:26:21.422Z,39.73
2023-03-01T23:28:50.017Z,36.30
2023-03-01T23:31:17.801Z,36.47
2023-03-01T23:33:46.112Z,30.30
2023-03-01T23:36:25.732Z,39.57
2023-03-01T23:38:57.792Z,40.67
2023-03-01T23:41:29.242Z,40.43
2023-03-01T23:44:00.831Z,43.37
2023-03-01T23:46:32.554Z,37.37
2023-03-01T23:49:01.017Z,38.80
2023-03-01T23:51:27.603Z,40.50
2023-03-01T23:54:01.598Z,38.47
2023-03-01T23:56:38.072Z,35.43
2023-03-01T23:59:13.590Z,38.40
